sensor_id;sensor_type;location;lat;lon;timestamp;P1;durP1;ratioP1;P2;durP2;ratioP2
57889;SDS011;43707;50.184;18.966;2022-11-20T00:00:53;196.90;;;71.30;;
57889;SDS011;43707;50.184;18.966;2022-11-20T00:03:22;179.80;;;65.50;;
57889;SDS011;43707;50.184;18.966;2022-11-20T00:05:48;171.00;;;63.20;;
57889;SDS011;43707;50.184;18.966;2022-11-20T00:08:13;178.00;;;68.40;;
57889;SDS011;43707;50.184;18.966;2022-11-20T00:10:39;175.80;;;65.00;;
57889;SDS011;43707;50.184;18.966;2022-11-20T00:13:05;183.80;;;67.30;;
57889;SDS011;43707;50.184;18.966;2022-11-20T00:15:32;216.30;;;73.50;;
57889;SDS011;43707;50.184;18.966;2022-11-20T00:17:57;208.10;;;78.30;;
57889;SDS011;43707;50.184;18.966;2022-11-20T00:20:22;209.60;;;75.20;;
57889;SDS011;43707;50.184;18.966;2022-11-20T00:22:48;211.40;;;79.00;;
57889;SDS011;43707;50.184;18.966;2022-11-20T00:25:14;238.10;;;83.80;;
57889;SDS011;43707;50.184;18.966;2022-11-20T00:27:40;243.30;;;85.90;;
57889;SDS011;43707;50.184;18.966;2022-11-20T00:30:05;256.10;;;86.20;;
57889;SDS011;43707;50.184;18.966;2022-11-20T00:32:31;313.10;;;108.70;;
57889;SDS011;43707;50.184;18.966;2022-11-20T00:34:57;313.70;;;113.00;;
57889;SDS011;43707;50.184;18.966;2022-11-20T00:37:22;291.50;;;104.00;;
57889;SDS011;43707;50.184;18.966;2022-11-20T00:39:47;345.90;;;125.00;;
57889;SDS011;43707;50.184;18.966;2022-11-20T00:42:13;364.60;;;127.00;;
57889;SDS011;43707;50.184;18.966;2022-11-20T00:44:38;292.30;;;106.90;;
57889;SDS011;43707;50.184;18.966;2022-11-20T00:47:04;297.80;;;105.50;;
57889;SDS011;43707;50.184;18.966;2022-11-20T00:49:29;343.90;;;116.70;;
57889;SDS011;43707;50.184;18.966;2022-11-20T00:51:55;330.10;;;116.00;;
57889;SDS011;43707;50.184;18.966;2022-11-20T00:54:20;284.90;;;104.80;;
57889;SDS011;43707;50.184;18.966;2022-11-20T00:56:45;283.50;;;104.80;;
57889;SDS011;43707;50.184;18.966;2022-11-20T00:59:11;253.70;;;95.50;;
57889;SDS011;43707;50.184;18.966;2022-11-20T01:01:36;290.60;;;98.00;;
57889;SDS011;43707;50.184;18.966;2022-11-20T01:04:02;279.40;;;100.90;;
57889;SDS011;43707;50.184;18.966;2022-11-20T01:06:31;257.50;;;95.30;;
57889;SDS011;43707;50.184;18.966;2022-11-20T01:08:59;246.20;;;86.70;;
57889;SDS011;43707;50.184;18.966;2022-11-20T01:11:28;253.40;;;91.50;;
57889;SDS011;43707;50.184;18.966;2022-11-20T01:13:55;256.60;;;91.40;;
57889;SDS011;43707;50.184;18.966;2022-11-20T01:16:31;240.50;;;86.90;;
57889;SDS011;43707;50.184;18.966;2022-11-20T01:18:58;263.70;;;94.70;;
57889;SDS011;43707;50.184;18.966;2022-11-20T01:21:26;240.90;;;84.60;;
57889;SDS011;43707;50.184;18.966;2022-11-20T01:23:53;230.40;;;87.80;;
57889;SDS011;43707;50.184;18.966;2022-11-20T01:26:20;253.90;;;96.00;;
57889;SDS011;43707;50.184;18.966;2022-11-20T01:28:48;234.80;;;83.50;;
57889;SDS011;43707;50.184;18.966;2022-11-20T01:31:21;243.90;;;92.60;;
57889;SDS011;43707;50.184;18.966;2022-11-20T01:33:49;271.80;;;99.20;;
57889;SDS011;43707;50.184;18.966;2022-11-20T01:36:18;228.50;;;84.20;;
57889;SDS011;43707;50.184;18.966;2022-11-20T01:38:45;232.10;;;87.20;;
57889;SDS011;43707;50.184;18.966;2022-11-20T01:41:11;247.30;;;94.60;;
57889;SDS011;43707;50.184;18.966;2022-11-20T01:44:00;214.10;;;84.10;;
57889;SDS011;43707;50.184;18.966;2022-11-20T01:46:26;211.60;;;80.90;;
57889;SDS011;43707;50.184;18.966;2022-11-20T01:48:58;221.30;;;79.80;;
57889;SDS011;43707;50.184;18.966;2022-11-20T01:53:59;207.40;;;79.00;;
57889;SDS011;43707;50.184;18.966;2022-11-20T01:56:27;204.00;;;78.20;;
57889;SDS011;43707;50.184;18.966;2022-11-20T01:58:54;188.50;;;69.90;;
57889;SDS011;43707;50.184;18.966;2022-11-20T02:01:23;194.90;;;74.90;;
57889;SDS011;43707;50.184;18.966;2022-11-20T02:03:49;202.60;;;78.90;;
57889;SDS011;43707;50.184;18.966;2022-11-20T02:06:17;204.80;;;79.60;;
57889;SDS011;43707;50.184;18.966;2022-11-20T02:08:45;210.90;;;76.10;;
57889;SDS011;43707;50.184;18.966;2022-11-20T02:11:11;224.00;;;87.40;;
57889;SDS011;43707;50.184;18.966;2022-11-20T02:13:37;238.50;;;83.80;;
57889;SDS011;43707;50.184;18.966;2022-11-20T02:18:40;218.40;;;78.70;;
57889;SDS011;43707;50.184;18.966;2022-11-20T02:21:09;233.00;;;80.10;;
57889;SDS011;43707;50.184;18.966;2022-11-20T02:26:26;183.10;;;67.70;;
57889;SDS011;43707;50.184;18.966;2022-11-20T02:28:53;220.30;;;77.30;;
57889;SDS011;43707;50.184;18.966;2022-11-20T02:31:19;206.00;;;74.80;;
57889;SDS011;43707;50.184;18.966;2022-11-20T02:33:45;212.40;;;76.60;;
57889;SDS011;43707;50.184;18.966;2022-11-20T02:36:11;180.40;;;68.20;;
57889;SDS011;43707;50.184;18.966;2022-11-20T02:38:38;192.20;;;73.20;;
57889;SDS011;43707;50.184;18.966;2022-11-20T02:41:03;211.50;;;79.70;;
57889;SDS011;43707;50.184;18.966;2022-11-20T02:43:29;222.50;;;78.80;;
57889;SDS011;43707;50.184;18.966;2022-11-20T02:45:54;189.80;;;71.50;;
57889;SDS011;43707;50.184;18.966;2022-11-20T02:48:19;179.10;;;71.20;;
57889;SDS011;43707;50.184;18.966;2022-11-20T02:50:45;158.30;;;62.00;;
57889;SDS011;43707;50.184;18.966;2022-11-20T02:53:10;178.20;;;70.40;;
57889;SDS011;43707;50.184;18.966;2022-11-20T02:55:35;159.30;;;63.50;;
57889;SDS011;43707;50.184;18.966;2022-11-20T02:58:01;139.00;;;53.70;;
57889;SDS011;43707;50.184;18.966;2022-11-20T03:00:26;169.50;;;64.80;;
57889;SDS011;43707;50.184;18.966;2022-11-20T03:02:52;140.00;;;52.30;;
57889;SDS011;43707;50.184;18.966;2022-11-20T03:05:17;160.80;;;58.60;;
57889;SDS011;43707;50.184;18.966;2022-11-20T03:07:43;144.20;;;55.40;;
57889;SDS011;43707;50.184;18.966;2022-11-20T03:10:08;134.10;;;52.30;;
57889;SDS011;43707;50.184;18.966;2022-11-20T03:12:34;133.60;;;53.50;;
57889;SDS011;43707;50.184;18.966;2022-11-20T03:14:59;150.40;;;56.60;;
57889;SDS011;43707;50.184;18.966;2022-11-20T03:17:24;152.40;;;54.70;;
57889;SDS011;43707;50.184;18.966;2022-11-20T03:19:50;143.60;;;55.60;;
57889;SDS011;43707;50.184;18.966;2022-11-20T03:22:15;163.50;;;60.70;;
57889;SDS011;43707;50.184;18.966;2022-11-20T03:24:40;164.60;;;60.00;;
57889;SDS011;43707;50.184;18.966;2022-11-20T03:27:06;148.70;;;56.80;;
57889;SDS011;43707;50.184;18.966;2022-11-20T03:29:31;126.50;;;48.90;;
57889;SDS011;43707;50.184;18.966;2022-11-20T03:31:57;123.20;;;51.60;;
57889;SDS011;43707;50.184;18.966;2022-11-20T03:34:22;137.30;;;51.40;;
57889;SDS011;43707;50.184;18.966;2022-11-20T03:36:48;150.10;;;57.30;;
57889;SDS011;43707;50.184;18.966;2022-11-20T03:39:13;155.20;;;59.80;;
57889;SDS011;43707;50.184;18.966;2022-11-20T03:41:39;134.30;;;49.50;;
57889;SDS011;43707;50.184;18.966;2022-11-20T03:44:07;162.80;;;58.60;;
57889;SDS011;43707;50.184;18.966;2022-11-20T03:46:35;155.00;;;55.50;;
57889;SDS011;43707;50.184;18.966;2022-11-20T03:49:00;152.40;;;58.30;;
57889;SDS011;43707;50.184;18.966;2022-11-20T03:51:30;144.80;;;55.30;;
57889;SDS011;43707;50.184;18.966;2022-11-20T03:53:59;149.10;;;55.20;;
57889;SDS011;43707;50.184;18.966;2022-11-20T03:56:26;132.40;;;50.00;;
57889;SDS011;43707;50.184;18.966;2022-11-20T03:58:53;153.10;;;54.30;;
57889;SDS011;43707;50.184;18.966;2022-11-20T04:01:24;134.40;;;50.40;;
57889;SDS011;43707;50.184;18.966;2022-11-20T04:03:51;143.00;;;48.90;;
57889;SDS011;43707;50.184;18.966;2022-11-20T04:06:21;154.00;;;57.00;;
57889;SDS011;43707;50.184;18.966;2022-11-20T04:08:54;138.30;;;54.40;;
57889;SDS011;43707;50.184;18.966;2022-11-20T04:11:21;161.70;;;60.10;;
57889;SDS011;43707;50.184;18.966;2022-11-20T04:13:56;159.60;;;57.30;;
57889;SDS011;43707;50.184;18.966;2022-11-20T04:16:23;150.20;;;52.70;;
57889;SDS011;43707;50.184;18.966;2022-11-20T04:18:52;171.30;;;58.10;;
57889;SDS011;43707;50.184;18.966;2022-11-20T04:21:19;135.30;;;51.80;;
57889;SDS011;43707;50.184;18.966;2022-11-20T04:23:44;148.30;;;54.60;;
57889;SDS011;43707;50.184;18.966;2022-11-20T04:26:10;141.50;;;50.20;;
57889;SDS011;43707;50.184;18.966;2022-11-20T04:28:37;146.60;;;54.30;;
57889;SDS011;43707;50.184;18.966;2022-11-20T04:33:36;140.70;;;51.00;;
57889;SDS011;43707;50.184;18.966;2022-11-20T04:36:12;176.90;;;60.00;;
57889;SDS011;43707;50.184;18.966;2022-11-20T04:38:42;166.40;;;60.60;;
57889;SDS011;43707;50.184;18.966;2022-11-20T04:41:09;156.70;;;59.40;;
57889;SDS011;43707;50.184;18.966;2022-11-20T04:43:39;179.90;;;63.70;;
57889;SDS011;43707;50.184;18.966;2022-11-20T04:46:05;153.90;;;52.00;;
57889;SDS011;43707;50.184;18.966;2022-11-20T04:48:30;166.70;;;61.10;;
57889;SDS011;43707;50.184;18.966;2022-11-20T04:50:56;186.20;;;68.40;;
57889;SDS011;43707;50.184;18.966;2022-11-20T04:53:22;172.50;;;62.90;;
57889;SDS011;43707;50.184;18.966;2022-11-20T04:55:47;114.00;;;43.90;;
57889;SDS011;43707;50.184;18.966;2022-11-20T04:58:13;117.70;;;39.60;;
57889;SDS011;43707;50.184;18.966;2022-11-20T05:00:39;152.30;;;55.10;;
57889;SDS011;43707;50.184;18.966;2022-11-20T05:03:04;165.50;;;61.70;;
57889;SDS011;43707;50.184;18.966;2022-11-20T05:05:30;173.80;;;61.60;;
57889;SDS011;43707;50.184;18.966;2022-11-20T05:07:56;143.60;;;55.40;;
57889;SDS011;43707;50.184;18.966;2022-11-20T05:10:22;154.50;;;57.30;;
57889;SDS011;43707;50.184;18.966;2022-11-20T05:12:48;149.00;;;51.00;;
57889;SDS011;43707;50.184;18.966;2022-11-20T05:15:14;157.10;;;59.40;;
57889;SDS011;43707;50.184;18.966;2022-11-20T05:17:39;163.90;;;55.80;;
57889;SDS011;43707;50.184;18.966;2022-11-20T05:20:05;156.10;;;57.80;;
57889;SDS011;43707;50.184;18.966;2022-11-20T05:22:30;169.60;;;60.30;;
57889;SDS011;43707;50.184;18.966;2022-11-20T05:24:56;186.60;;;60.10;;
57889;SDS011;43707;50.184;18.966;2022-11-20T05:27:21;266.30;;;85.70;;
57889;SDS011;43707;50.184;18.966;2022-11-20T05:29:47;235.50;;;81.00;;
57889;SDS011;43707;50.184;18.966;2022-11-20T05:32:12;258.40;;;88.20;;
57889;SDS011;43707;50.184;18.966;2022-11-20T05:34:37;248.30;;;79.30;;
57889;SDS011;43707;50.184;18.966;2022-11-20T05:37:03;236.40;;;77.20;;
57889;SDS011;43707;50.184;18.966;2022-11-20T05:39:28;234.50;;;79.50;;
57889;SDS011;43707;50.184;18.966;2022-11-20T05:41:54;231.90;;;79.90;;
57889;SDS011;43707;50.184;18.966;2022-11-20T05:44:38;230.70;;;77.80;;
57889;SDS011;43707;50.184;18.966;2022-11-20T05:47:04;196.70;;;68.80;;
57889;SDS011;43707;50.184;18.966;2022-11-20T05:49:29;214.30;;;78.10;;
57889;SDS011;43707;50.184;18.966;2022-11-20T05:51:54;188.30;;;69.20;;
57889;SDS011;43707;50.184;18.966;2022-11-20T05:54:20;183.70;;;71.80;;
57889;SDS011;43707;50.184;18.966;2022-11-20T05:56:45;200.90;;;76.10;;
57889;SDS011;43707;50.184;18.966;2022-11-20T05:59:10;156.70;;;56.00;;
57889;SDS011;43707;50.184;18.966;2022-11-20T06:01:36;179.70;;;66.60;;
57889;SDS011;43707;50.184;18.966;2022-11-20T06:04:01;213.80;;;72.40;;
57889;SDS011;43707;50.184;18.966;2022-11-20T06:06:27;146.30;;;49.20;;
57889;SDS011;43707;50.184;18.966;2022-11-20T06:08:53;222.30;;;71.90;;
57889;SDS011;43707;50.184;18.966;2022-11-20T06:11:19;142.30;;;49.20;;
57889;SDS011;43707;50.184;18.966;2022-11-20T06:13:45;167.10;;;60.80;;
57889;SDS011;43707;50.184;18.966;2022-11-20T06:16:11;163.20;;;55.30;;
57889;SDS011;43707;50.184;18.966;2022-11-20T06:18:39;164.40;;;53.20;;
57889;SDS011;43707;50.184;18.966;2022-11-20T06:21:08;180.30;;;68.50;;
57889;SDS011;43707;50.184;18.966;2022-11-20T06:23:35;187.90;;;67.10;;
57889;SDS011;43707;50.184;18.966;2022-11-20T06:26:02;149.10;;;55.10;;
57889;SDS011;43707;50.184;18.966;2022-11-20T06:28:31;172.40;;;60.30;;
57889;SDS011;43707;50.184;18.966;2022-11-20T06:30:57;170.10;;;64.90;;
57889;SDS011;43707;50.184;18.966;2022-11-20T06:33:23;154.00;;;56.20;;
57889;SDS011;43707;50.184;18.966;2022-11-20T06:35:49;190.60;;;66.70;;
57889;SDS011;43707;50.184;18.966;2022-11-20T06:38:14;193.60;;;69.90;;
57889;SDS011;43707;50.184;18.966;2022-11-20T06:40:40;188.70;;;68.50;;
57889;SDS011;43707;50.184;18.966;2022-11-20T06:43:07;196.60;;;69.90;;
57889;SDS011;43707;50.184;18.966;2022-11-20T06:45:33;236.90;;;80.00;;
57889;SDS011;43707;50.184;18.966;2022-11-20T06:47:58;201.00;;;74.80;;
57889;SDS011;43707;50.184;18.966;2022-11-20T06:50:24;160.10;;;58.80;;
57889;SDS011;43707;50.184;18.966;2022-11-20T06:52:49;161.80;;;60.90;;
57889;SDS011;43707;50.184;18.966;2022-11-20T06:55:14;155.30;;;60.80;;
57889;SDS011;43707;50.184;18.966;2022-11-20T06:57:40;161.10;;;62.90;;
57889;SDS011;43707;50.184;18.966;2022-11-20T07:00:05;164.10;;;60.60;;
57889;SDS011;43707;50.184;18.966;2022-11-20T07:02:31;169.40;;;63.40;;
57889;SDS011;43707;50.184;18.966;2022-11-20T07:04:56;158.50;;;60.20;;
57889;SDS011;43707;50.184;18.966;2022-11-20T07:07:22;141.60;;;54.40;;
57889;SDS011;43707;50.184;18.966;2022-11-20T07:09:47;117.80;;;48.90;;
57889;SDS011;43707;50.184;18.966;2022-11-20T07:12:12;116.90;;;47.30;;
57889;SDS011;43707;50.184;18.966;2022-11-20T07:14:38;108.60;;;45.90;;
57889;SDS011;43707;50.184;18.966;2022-11-20T07:17:03;124.00;;;51.80;;
57889;SDS011;43707;50.184;18.966;2022-11-20T07:19:28;83.70;;;39.50;;
57889;SDS011;43707;50.184;18.966;2022-11-20T07:21:54;125.90;;;49.80;;
57889;SDS011;43707;50.184;18.966;2022-11-20T07:24:19;115.30;;;49.30;;
57889;SDS011;43707;50.184;18.966;2022-11-20T07:26:48;128.50;;;52.80;;
57889;SDS011;43707;50.184;18.966;2022-11-20T07:29:14;95.80;;;43.20;;
57889;SDS011;43707;50.184;18.966;2022-11-20T07:31:40;107.80;;;41.60;;
57889;SDS011;43707;50.184;18.966;2022-11-20T07:34:06;117.30;;;47.20;;
57889;SDS011;43707;50.184;18.966;2022-11-20T07:36:31;108.90;;;42.60;;
57889;SDS011;43707;50.184;18.966;2022-11-20T07:38:56;116.60;;;46.30;;
57889;SDS011;43707;50.184;18.966;2022-11-20T07:41:21;131.60;;;52.90;;
57889;SDS011;43707;50.184;18.966;2022-11-20T07:43:47;118.60;;;49.70;;
57889;SDS011;43707;50.184;18.966;2022-11-20T07:46:12;121.10;;;50.00;;
57889;SDS011;43707;50.184;18.966;2022-11-20T07:48:38;135.00;;;54.90;;
57889;SDS011;43707;50.184;18.966;2022-11-20T07:51:03;135.20;;;55.50;;
57889;SDS011;43707;50.184;18.966;2022-11-20T07:53:28;132.00;;;54.90;;
57889;SDS011;43707;50.184;18.966;2022-11-20T07:55:54;136.30;;;54.50;;
57889;SDS011;43707;50.184;18.966;2022-11-20T07:58:19;117.10;;;48.10;;
57889;SDS011;43707;50.184;18.966;2022-11-20T08:00:45;117.20;;;46.30;;
57889;SDS011;43707;50.184;18.966;2022-11-20T08:03:11;120.60;;;50.20;;
57889;SDS011;43707;50.184;18.966;2022-11-20T08:05:36;113.90;;;44.80;;
57889;SDS011;43707;50.184;18.966;2022-11-20T08:08:02;117.90;;;48.90;;
57889;SDS011;43707;50.184;18.966;2022-11-20T08:10:28;118.80;;;50.90;;
57889;SDS011;43707;50.184;18.966;2022-11-20T08:12:53;113.30;;;47.70;;
57889;SDS011;43707;50.184;18.966;2022-11-20T08:15:38;122.80;;;52.20;;
57889;SDS011;43707;50.184;18.966;2022-11-20T08:18:05;123.20;;;53.50;;
57889;SDS011;43707;50.184;18.966;2022-11-20T08:20:31;125.20;;;54.30;;
57889;SDS011;43707;50.184;18.966;2022-11-20T08:22:58;115.70;;;46.70;;
57889;SDS011;43707;50.184;18.966;2022-11-20T08:25:25;129.60;;;49.60;;
57889;SDS011;43707;50.184;18.966;2022-11-20T08:27:51;123.40;;;53.60;;
57889;SDS011;43707;50.184;18.966;2022-11-20T08:30:16;135.30;;;54.90;;
57889;SDS011;43707;50.184;18.966;2022-11-20T08:32:41;128.00;;;52.40;;
57889;SDS011;43707;50.184;18.966;2022-11-20T08:35:10;157.80;;;61.90;;
57889;SDS011;43707;50.184;18.966;2022-11-20T08:37:35;163.70;;;65.90;;
57889;SDS011;43707;50.184;18.966;2022-11-20T08:40:02;128.80;;;53.20;;
57889;SDS011;43707;50.184;18.966;2022-11-20T08:42:31;145.10;;;60.20;;
57889;SDS011;43707;50.184;18.966;2022-11-20T08:44:57;134.30;;;55.20;;
57889;SDS011;43707;50.184;18.966;2022-11-20T08:47:22;142.20;;;57.70;;
57889;SDS011;43707;50.184;18.966;2022-11-20T08:49:47;160.40;;;62.80;;
57889;SDS011;43707;50.184;18.966;2022-11-20T08:52:13;165.70;;;67.60;;
57889;SDS011;43707;50.184;18.966;2022-11-20T08:54:38;184.10;;;73.10;;
57889;SDS011;43707;50.184;18.966;2022-11-20T08:57:03;150.00;;;60.50;;
57889;SDS011;43707;50.184;18.966;2022-11-20T08:59:29;164.30;;;66.40;;
57889;SDS011;43707;50.184;18.966;2022-11-20T09:01:55;148.40;;;63.50;;
57889;SDS011;43707;50.184;18.966;2022-11-20T09:04:21;143.60;;;61.00;;
57889;SDS011;43707;50.184;18.966;2022-11-20T09:06:46;149.70;;;60.70;;
57889;SDS011;43707;50.184;18.966;2022-11-20T09:09:16;157.70;;;67.90;;
57889;SDS011;43707;50.184;18.966;2022-11-20T09:11:42;171.00;;;70.10;;
57889;SDS011;43707;50.184;18.966;2022-11-20T09:14:08;151.90;;;60.40;;
57889;SDS011;43707;50.184;18.966;2022-11-20T09:16:33;154.80;;;63.00;;
57889;SDS011;43707;50.184;18.966;2022-11-20T09:18:59;149.00;;;59.90;;
57889;SDS011;43707;50.184;18.966;2022-11-20T09:21:24;166.40;;;66.30;;
57889;SDS011;43707;50.184;18.966;2022-11-20T09:23:50;173.50;;;69.00;;
57889;SDS011;43707;50.184;18.966;2022-11-20T09:26:15;156.70;;;66.00;;
57889;SDS011;43707;50.184;18.966;2022-11-20T09:28:41;160.10;;;66.90;;
57889;SDS011;43707;50.184;18.966;2022-11-20T09:31:07;163.20;;;68.20;;
57889;SDS011;43707;50.184;18.966;2022-11-20T09:33:33;179.10;;;77.90;;
57889;SDS011;43707;50.184;18.966;2022-11-20T09:35:58;177.40;;;75.10;;
57889;SDS011;43707;50.184;18.966;2022-11-20T09:38:23;183.00;;;79.10;;
57889;SDS011;43707;50.184;18.966;2022-11-20T09:47:07;176.30;;;74.10;;
57889;SDS011;43707;50.184;18.966;2022-11-20T09:51:51;148.60;;;64.40;;
57889;SDS011;43707;50.184;18.966;2022-11-20T09:57:02;162.00;;;69.70;;
57889;SDS011;43707;50.184;18.966;2022-11-20T09:59:40;167.70;;;71.50;;
57889;SDS011;43707;50.184;18.966;2022-11-20T10:04:53;172.10;;;66.60;;
57889;SDS011;43707;50.184;18.966;2022-11-20T10:07:28;171.10;;;72.40;;
57889;SDS011;43707;50.184;18.966;2022-11-20T10:09:57;180.40;;;74.50;;
57889;SDS011;43707;50.184;18.966;2022-11-20T10:26:03;158.10;;;65.40;;
57889;SDS011;43707;50.184;18.966;2022-11-20T10:28:47;158.20;;;67.20;;
57889;SDS011;43707;50.184;18.966;2022-11-20T10:31:28;163.50;;;69.60;;
57889;SDS011;43707;50.184;18.966;2022-11-20T10:34:07;138.00;;;60.10;;
57889;SDS011;43707;50.184;18.966;2022-11-20T10:36:56;152.50;;;66.60;;
57889;SDS011;43707;50.184;18.966;2022-11-20T10:39:27;156.30;;;65.20;;
57889;SDS011;43707;50.184;18.966;2022-11-20T10:41:53;155.60;;;67.00;;
57889;SDS011;43707;50.184;18.966;2022-11-20T10:44:20;146.40;;;62.70;;
57889;SDS011;43707;50.184;18.966;2022-11-20T10:47:11;156.10;;;69.90;;
57889;SDS011;43707;50.184;18.966;2022-11-20T10:49:39;149.80;;;64.40;;
57889;SDS011;43707;50.184;18.966;2022-11-20T10:55:13;133.80;;;60.50;;
57889;SDS011;43707;50.184;18.966;2022-11-20T11:00:19;136.90;;;59.70;;
57889;SDS011;43707;50.184;18.966;2022-11-20T11:02:49;135.50;;;62.20;;
57889;SDS011;43707;50.184;18.966;2022-11-20T11:08:01;140.90;;;65.80;;
57889;SDS011;43707;50.184;18.966;2022-11-20T11:10:32;139.60;;;63.50;;
57889;SDS011;43707;50.184;18.966;2022-11-20T11:13:06;140.40;;;63.40;;
57889;SDS011;43707;50.184;18.966;2022-11-20T11:15:39;149.70;;;69.20;;
57889;SDS011;43707;50.184;18.966;2022-11-20T11:20:34;172.40;;;71.40;;
57889;SDS011;43707;50.184;18.966;2022-11-20T11:22:59;163.20;;;70.40;;
57889;SDS011;43707;50.184;18.966;2022-11-20T11:25:29;140.10;;;63.30;;
57889;SDS011;43707;50.184;18.966;2022-11-20T11:27:59;158.70;;;72.00;;
57889;SDS011;43707;50.184;18.966;2022-11-20T11:30:45;164.40;;;71.00;;
57889;SDS011;43707;50.184;18.966;2022-11-20T11:35:58;160.00;;;70.20;;
57889;SDS011;43707;50.184;18.966;2022-11-20T11:38:32;158.30;;;67.70;;
57889;SDS011;43707;50.184;18.966;2022-11-20T11:41:00;126.40;;;57.10;;
57889;SDS011;43707;50.184;18.966;2022-11-20T11:43:26;155.10;;;65.30;;
57889;SDS011;43707;50.184;18.966;2022-11-20T11:48:54;154.60;;;65.80;;
57889;SDS011;43707;50.184;18.966;2022-11-20T11:51:23;155.80;;;66.60;;
57889;SDS011;43707;50.184;18.966;2022-11-20T11:54:17;176.90;;;74.30;;
57889;SDS011;43707;50.184;18.966;2022-11-20T11:56:45;157.90;;;68.30;;
57889;SDS011;43707;50.184;18.966;2022-11-20T11:59:12;147.90;;;63.60;;
57889;SDS011;43707;50.184;18.966;2022-11-20T12:01:48;161.90;;;65.40;;
57889;SDS011;43707;50.184;18.966;2022-11-20T12:04:24;205.90;;;79.20;;
57889;SDS011;43707;50.184;18.966;2022-11-20T12:13:18;213.40;;;85.00;;
57889;SDS011;43707;50.184;18.966;2022-11-20T12:15:56;192.40;;;77.50;;
57889;SDS011;43707;50.184;18.966;2022-11-20T12:18:22;243.20;;;93.00;;
57889;SDS011;43707;50.184;18.966;2022-11-20T12:20:51;218.20;;;86.00;;
57889;SDS011;43707;50.184;18.966;2022-11-20T12:23:28;260.70;;;102.80;;
57889;SDS011;43707;50.184;18.966;2022-11-20T12:26:00;173.70;;;72.50;;
57889;SDS011;43707;50.184;18.966;2022-11-20T12:33:47;157.70;;;65.20;;
57889;SDS011;43707;50.184;18.966;2022-11-20T12:36:22;155.30;;;64.80;;
57889;SDS011;43707;50.184;18.966;2022-11-20T12:53:22;152.30;;;60.20;;
57889;SDS011;43707;50.184;18.966;2022-11-20T13:01:45;146.00;;;59.10;;
57889;SDS011;43707;50.184;18.966;2022-11-20T13:07:08;130.70;;;55.90;;
57889;SDS011;43707;50.184;18.966;2022-11-20T13:09:36;138.80;;;57.60;;
57889;SDS011;43707;50.184;18.966;2022-11-20T13:17:52;130.90;;;54.90;;
57889;SDS011;43707;50.184;18.966;2022-11-20T13:20:45;135.40;;;59.00;;
57889;SDS011;43707;50.184;18.966;2022-11-20T13:23:22;150.10;;;61.50;;
57889;SDS011;43707;50.184;18.966;2022-11-20T13:25:49;134.00;;;57.00;;
57889;SDS011;43707;50.184;18.966;2022-11-20T13:30:50;134.40;;;58.80;;
57889;SDS011;43707;50.184;18.966;2022-11-20T13:33:23;136.70;;;55.80;;
57889;SDS011;43707;50.184;18.966;2022-11-20T13:35:59;136.90;;;57.90;;
57889;SDS011;43707;50.184;18.966;2022-11-20T13:38:27;152.20;;;63.40;;
57889;SDS011;43707;50.184;18.966;2022-11-20T13:40:54;152.30;;;61.20;;
57889;SDS011;43707;50.184;18.966;2022-11-20T13:43:38;145.30;;;57.00;;
57889;SDS011;43707;50.184;18.966;2022-11-20T13:46:06;128.90;;;54.70;;
57889;SDS011;43707;50.184;18.966;2022-11-20T13:48:40;116.60;;;50.40;;
57889;SDS011;43707;50.184;18.966;2022-11-20T13:51:10;120.40;;;53.10;;
57889;SDS011;43707;50.184;18.966;2022-11-20T14:02:11;116.70;;;49.30;;
57889;SDS011;43707;50.184;18.966;2022-11-20T14:04:40;122.50;;;54.30;;
57889;SDS011;43707;50.184;18.966;2022-11-20T14:07:08;124.50;;;51.40;;
57889;SDS011;43707;50.184;18.966;2022-11-20T14:09:34;131.80;;;57.20;;
57889;SDS011;43707;50.184;18.966;2022-11-20T14:12:01;139.20;;;60.30;;
57889;SDS011;43707;50.184;18.966;2022-11-20T14:14:28;148.00;;;62.90;;
57889;SDS011;43707;50.184;18.966;2022-11-20T14:17:08;134.60;;;57.60;;
57889;SDS011;43707;50.184;18.966;2022-11-20T14:19:34;142.20;;;59.10;;
57889;SDS011;43707;50.184;18.966;2022-11-20T14:27:38;144.60;;;59.50;;
57889;SDS011;43707;50.184;18.966;2022-11-20T14:30:05;161.50;;;61.40;;
57889;SDS011;43707;50.184;18.966;2022-11-20T14:32:36;184.10;;;67.20;;
57889;SDS011;43707;50.184;18.966;2022-11-20T14:35:03;246.10;;;82.20;;
57889;SDS011;43707;50.184;18.966;2022-11-20T14:37:33;229.60;;;78.40;;
57889;SDS011;43707;50.184;18.966;2022-11-20T14:40:02;219.70;;;74.30;;
57889;SDS011;43707;50.184;18.966;2022-11-20T14:42:30;240.40;;;81.30;;
57889;SDS011;43707;50.184;18.966;2022-11-20T14:44:59;227.90;;;76.40;;
57889;SDS011;43707;50.184;18.966;2022-11-20T14:47:25;211.50;;;75.80;;
57889;SDS011;43707;50.184;18.966;2022-11-20T14:49:52;215.50;;;75.10;;
57889;SDS011;43707;50.184;18.966;2022-11-20T14:52:19;200.50;;;73.70;;
57889;SDS011;43707;50.184;18.966;2022-11-20T14:54:56;185.70;;;67.40;;
57889;SDS011;43707;50.184;18.966;2022-11-20T14:57:27;164.00;;;59.80;;
57889;SDS011;43707;50.184;18.966;2022-11-20T15:02:34;163.50;;;62.40;;
57889;SDS011;43707;50.184;18.966;2022-11-20T15:05:00;155.30;;;63.30;;
57889;SDS011;43707;50.184;18.966;2022-11-20T15:07:36;180.20;;;66.60;;
57889;SDS011;43707;50.184;18.966;2022-11-20T15:10:07;191.90;;;70.80;;
57889;SDS011;43707;50.184;18.966;2022-11-20T15:15:29;182.30;;;64.50;;
57889;SDS011;43707;50.184;18.966;2022-11-20T15:17:56;161.70;;;63.70;;
57889;SDS011;43707;50.184;18.966;2022-11-20T15:20:24;147.70;;;61.60;;
57889;SDS011;43707;50.184;18.966;2022-11-20T15:22:51;147.30;;;60.30;;
57889;SDS011;43707;50.184;18.966;2022-11-20T15:25:17;138.70;;;59.00;;
57889;SDS011;43707;50.184;18.966;2022-11-20T15:27:43;152.90;;;62.50;;
57889;SDS011;43707;50.184;18.966;2022-11-20T15:30:16;150.30;;;63.70;;
57889;SDS011;43707;50.184;18.966;2022-11-20T15:32:44;179.60;;;75.70;;
57889;SDS011;43707;50.184;18.966;2022-11-20T15:35:10;182.20;;;78.60;;
57889;SDS011;43707;50.184;18.966;2022-11-20T15:37:36;228.10;;;96.50;;
57889;SDS011;43707;50.184;18.966;2022-11-20T15:40:02;235.30;;;94.60;;
57889;SDS011;43707;50.184;18.966;2022-11-20T15:42:28;258.30;;;103.30;;
57889;SDS011;43707;50.184;18.966;2022-11-20T15:44:54;331.90;;;129.00;;
57889;SDS011;43707;50.184;18.966;2022-11-20T15:47:30;254.60;;;105.60;;
57889;SDS011;43707;50.184;18.966;2022-11-20T15:49:57;220.10;;;92.50;;
57889;SDS011;43707;50.184;18.966;2022-11-20T15:52:22;229.00;;;100.70;;
57889;SDS011;43707;50.184;18.966;2022-11-20T15:54:48;214.00;;;91.90;;
57889;SDS011;43707;50.184;18.966;2022-11-20T15:57:13;235.70;;;96.70;;